sensor_id;sensor_type;location;lat;lon;timestamp;P1;durP1;ratioP1;P2;durP2;ratioP2
35675;SDS011;21790;42.668;23.298;2024-02-23T00:01:02;22.05;;;12.00;;
35675;SDS011;21790;42.668;23.298;2024-02-23T00:03:27;19.30;;;11.45;;
35675;SDS011;21790;42.668;23.298;2024-02-23T00:05:53;22.15;;;12.43;;
35675;SDS011;21790;42.668;23.298;2024-02-23T00:08:19;22.85;;;12.32;;
35675;SDS011;21790;42.668;23.298;2024-02-23T00:10:44;22.67;;;13.27;;
35675;SDS011;21790;42.668;23.298;2024-02-23T00:13:11;23.58;;;12.82;;
35675;SDS011;21790;42.668;23.298;2024-02-23T00:15:37;24.05;;;13.32;;
35675;SDS011;21790;42.668;23.298;2024-02-23T00:18:02;28.13;;;12.98;;
35675;SDS011;21790;42.668;23.298;2024-02-23T00:20:29;20.15;;;11.43;;
35675;SDS011;21790;42.668;23.298;2024-02-23T00:22:55;25.25;;;13.20;;
35675;SDS011;21790;42.668;23.298;2024-02-23T00:25:20;21.67;;;11.95;;
35675;SDS011;21790;42.668;23.298;2024-02-23T00:27:46;24.88;;;11.45;;
35675;SDS011;21790;42.668;23.298;2024-02-23T00:30:14;19.48;;;10.50;;
35675;SDS011;21790;42.668;23.298;2024-02-23T00:32:40;17.83;;;11.02;;
35675;SDS011;21790;42.668;23.298;2024-02-23T00:35:05;19.60;;;10.73;;
35675;SDS011;21790;42.668;23.298;2024-02-23T00:37:31;20.27;;;10.63;;
35675;SDS011;21790;42.668;23.298;2024-02-23T00:40:09;26.35;;;13.15;;
35675;SDS011;21790;42.668;23.298;2024-02-23T00:42:35;20.38;;;11.00;;
35675;SDS011;21790;42.668;23.298;2024-02-23T00:45:01;17.08;;;9.85;;
35675;SDS011;21790;42.668;23.298;2024-02-23T00:47:26;17.73;;;9.85;;
35675;SDS011;21790;42.668;23.298;2024-02-23T00:49:53;15.02;;;9.93;;
35675;SDS011;21790;42.668;23.298;2024-02-23T00:52:18;18.17;;;10.38;;
35675;SDS011;21790;42.668;23.298;2024-02-23T00:54:43;19.23;;;11.68;;
35675;SDS011;21790;42.668;23.298;2024-02-23T00:57:09;24.08;;;11.25;;
35675;SDS011;21790;42.668;23.298;2024-02-23T00:59:36;20.23;;;11.10;;
35675;SDS011;21790;42.668;23.298;2024-02-23T01:02:01;19.08;;;11.15;;
35675;SDS011;21790;42.668;23.298;2024-02-23T01:04:27;19.95;;;11.40;;
35675;SDS011;21790;42.668;23.298;2024-02-23T01:06:52;18.08;;;10.40;;
35675;SDS011;21790;42.668;23.298;2024-02-23T01:09:18;16.25;;;9.40;;
35675;SDS011;21790;42.668;23.298;2024-02-23T01:11:48;15.07;;;10.02;;
35675;SDS011;21790;42.668;23.298;2024-02-23T01:14:14;17.48;;;10.38;;
35675;SDS011;21790;42.668;23.298;2024-02-23T01:16:40;22.20;;;10.48;;
35675;SDS011;21790;42.668;23.298;2024-02-23T01:19:05;16.85;;;9.80;;
35675;SDS011;21790;42.668;23.298;2024-02-23T01:21:31;19.95;;;10.50;;
35675;SDS011;21790;42.668;23.298;2024-02-23T01:23:56;15.85;;;9.90;;
35675;SDS011;21790;42.668;23.298;2024-02-23T01:26:22;17.65;;;10.25;;
35675;SDS011;21790;42.668;23.298;2024-02-23T01:28:48;15.88;;;9.82;;
35675;SDS011;21790;42.668;23.298;2024-02-23T01:31:14;14.50;;;8.93;;
35675;SDS011;21790;42.668;23.298;2024-02-23T01:33:39;15.10;;;9.45;;
35675;SDS011;21790;42.668;23.298;2024-02-23T01:36:05;14.18;;;8.98;;
35675;SDS011;21790;42.668;23.298;2024-02-23T01:38:32;15.13;;;9.45;;
35675;SDS011;21790;42.668;23.298;2024-02-23T01:41:01;16.92;;;10.00;;
35675;SDS011;21790;42.668;23.298;2024-02-23T01:43:27;16.23;;;9.88;;
35675;SDS011;21790;42.668;23.298;2024-02-23T01:45:52;17.30;;;10.15;;
35675;SDS011;21790;42.668;23.298;2024-02-23T01:48:19;18.98;;;10.38;;
35675;SDS011;21790;42.668;23.298;2024-02-23T01:50:45;14.90;;;9.70;;
35675;SDS011;21790;42.668;23.298;2024-02-23T01:53:11;18.58;;;9.18;;
35675;SDS011;21790;42.668;23.298;2024-02-23T01:55:41;17.20;;;9.35;;
35675;SDS011;21790;42.668;23.298;2024-02-23T01:58:10;15.30;;;9.32;;
35675;SDS011;21790;42.668;23.298;2024-02-23T02:00:37;13.07;;;8.45;;
35675;SDS011;21790;42.668;23.298;2024-02-23T02:03:04;12.35;;;8.35;;
35675;SDS011;21790;42.668;23.298;2024-02-23T02:05:30;13.07;;;8.15;;
35675;SDS011;21790;42.668;23.298;2024-02-23T02:07:55;14.45;;;8.85;;
35675;SDS011;21790;42.668;23.298;2024-02-23T02:10:24;14.98;;;9.55;;
35675;SDS011;21790;42.668;23.298;2024-02-23T02:12:50;15.10;;;9.23;;
35675;SDS011;21790;42.668;23.298;2024-02-23T02:15:16;15.90;;;9.48;;
35675;SDS011;21790;42.668;23.298;2024-02-23T02:17:42;15.45;;;9.98;;
35675;SDS011;21790;42.668;23.298;2024-02-23T02:20:10;19.40;;;9.05;;
35675;SDS011;21790;42.668;23.298;2024-02-23T02:22:37;14.73;;;8.85;;
35675;SDS011;21790;42.668;23.298;2024-02-23T02:25:03;15.77;;;9.05;;
35675;SDS011;21790;42.668;23.298;2024-02-23T02:27:29;12.88;;;7.88;;
35675;SDS011;21790;42.668;23.298;2024-02-23T02:29:54;16.58;;;8.75;;
35675;SDS011;21790;42.668;23.298;2024-02-23T02:32:20;16.70;;;10.48;;
35675;SDS011;21790;42.668;23.298;2024-02-23T02:34:45;14.48;;;8.85;;
35675;SDS011;21790;42.668;23.298;2024-02-23T02:37:11;14.52;;;8.73;;
35675;SDS011;21790;42.668;23.298;2024-02-23T02:39:36;16.67;;;9.27;;
35675;SDS011;21790;42.668;23.298;2024-02-23T02:42:02;16.05;;;9.73;;
35675;SDS011;21790;42.668;23.298;2024-02-23T02:44:28;14.65;;;9.60;;
35675;SDS011;21790;42.668;23.298;2024-02-23T02:46:56;12.77;;;8.82;;
35675;SDS011;21790;42.668;23.298;2024-02-23T02:49:22;19.27;;;10.40;;
35675;SDS011;21790;42.668;23.298;2024-02-23T02:51:47;17.90;;;9.73;;
35675;SDS011;21790;42.668;23.298;2024-02-23T02:54:13;18.73;;;9.45;;
35675;SDS011;21790;42.668;23.298;2024-02-23T02:56:45;15.40;;;9.30;;
35675;SDS011;21790;42.668;23.298;2024-02-23T02:59:13;16.42;;;9.75;;
35675;SDS011;21790;42.668;23.298;2024-02-23T03:01:39;18.08;;;10.13;;
35675;SDS011;21790;42.668;23.298;2024-02-23T03:04:05;18.67;;;10.15;;
35675;SDS011;21790;42.668;23.298;2024-02-23T03:06:30;16.27;;;10.23;;
35675;SDS011;21790;42.668;23.298;2024-02-23T03:08:56;16.58;;;9.70;;
35675;SDS011;21790;42.668;23.298;2024-02-23T03:11:22;17.58;;;9.98;;
35675;SDS011;21790;42.668;23.298;2024-02-23T03:13:47;14.15;;;9.10;;
35675;SDS011;21790;42.668;23.298;2024-02-23T03:16:16;19.98;;;10.30;;
35675;SDS011;21790;42.668;23.298;2024-02-23T03:18:42;16.08;;;9.95;;
35675;SDS011;21790;42.668;23.298;2024-02-23T03:21:08;15.63;;;10.40;;
35675;SDS011;21790;42.668;23.298;2024-02-23T03:23:39;14.75;;;9.70;;
35675;SDS011;21790;42.668;23.298;2024-02-23T03:26:06;16.48;;;10.52;;
35675;SDS011;21790;42.668;23.298;2024-02-23T03:28:32;19.98;;;10.27;;
35675;SDS011;21790;42.668;23.298;2024-02-23T03:30:58;18.98;;;10.70;;
35675;SDS011;21790;42.668;23.298;2024-02-23T03:33:23;24.48;;;10.30;;
35675;SDS011;21790;42.668;23.298;2024-02-23T03:35:48;21.65;;;10.45;;
35675;SDS011;21790;42.668;23.298;2024-02-23T03:38:14;15.48;;;9.40;;
35675;SDS011;21790;42.668;23.298;2024-02-23T03:40:40;20.45;;;9.88;;
35675;SDS011;21790;42.668;23.298;2024-02-23T03:43:06;16.40;;;10.18;;
35675;SDS011;21790;42.668;23.298;2024-02-23T03:45:32;16.13;;;9.98;;
35675;SDS011;21790;42.668;23.298;2024-02-23T03:47:57;18.48;;;9.07;;
35675;SDS011;21790;42.668;23.298;2024-02-23T03:50:24;21.67;;;11.05;;
35675;SDS011;21790;42.668;23.298;2024-02-23T03:52:50;17.33;;;11.23;;
35675;SDS011;21790;42.668;23.298;2024-02-23T03:55:16;17.73;;;11.10;;
35675;SDS011;21790;42.668;23.298;2024-02-23T03:57:41;21.50;;;10.65;;
35675;SDS011;21790;42.668;23.298;2024-02-23T04:00:07;17.58;;;10.00;;
35675;SDS011;21790;42.668;23.298;2024-02-23T04:02:34;19.10;;;11.00;;
35675;SDS011;21790;42.668;23.298;2024-02-23T04:04:59;16.75;;;10.23;;
35675;SDS011;21790;42.668;23.298;2024-02-23T04:07:25;19.55;;;11.48;;
35675;SDS011;21790;42.668;23.298;2024-02-23T04:09:50;18.98;;;10.10;;
35675;SDS011;21790;42.668;23.298;2024-02-23T04:12:19;16.48;;;10.70;;
35675;SDS011;21790;42.668;23.298;2024-02-23T04:14:45;21.23;;;11.10;;
35675;SDS011;21790;42.668;23.298;2024-02-23T04:17:11;16.60;;;9.93;;
35675;SDS011;21790;42.668;23.298;2024-02-23T04:19:42;16.45;;;9.98;;
35675;SDS011;21790;42.668;23.298;2024-02-23T04:22:09;18.48;;;10.25;;
35675;SDS011;21790;42.668;23.298;2024-02-23T04:24:40;20.30;;;9.68;;
35675;SDS011;21790;42.668;23.298;2024-02-23T04:27:06;15.93;;;10.00;;
35675;SDS011;21790;42.668;23.298;2024-02-23T04:29:35;18.02;;;9.63;;
35675;SDS011;21790;42.668;23.298;2024-02-23T04:32:01;15.57;;;7.68;;
35675;SDS011;21790;42.668;23.298;2024-02-23T04:34:29;17.35;;;9.10;;
35675;SDS011;21790;42.668;23.298;2024-02-23T04:36:54;16.17;;;9.70;;
35675;SDS011;21790;42.668;23.298;2024-02-23T04:39:20;16.23;;;10.05;;
35675;SDS011;21790;42.668;23.298;2024-02-23T04:41:46;19.08;;;10.88;;
35675;SDS011;21790;42.668;23.298;2024-02-23T04:44:12;16.50;;;10.23;;
35675;SDS011;21790;42.668;23.298;2024-02-23T04:46:39;15.48;;;10.00;;
35675;SDS011;21790;42.668;23.298;2024-02-23T04:51:38;15.50;;;9.85;;
35675;SDS011;21790;42.668;23.298;2024-02-23T04:54:04;17.42;;;9.40;;
35675;SDS011;21790;42.668;23.298;2024-02-23T04:56:29;17.80;;;10.60;;
35675;SDS011;21790;42.668;23.298;2024-02-23T04:58:55;17.27;;;10.25;;
35675;SDS011;21790;42.668;23.298;2024-02-23T05:01:21;17.20;;;10.45;;
35675;SDS011;21790;42.668;23.298;2024-02-23T05:03:46;23.98;;;9.98;;
35675;SDS011;21790;42.668;23.298;2024-02-23T05:06:12;23.00;;;11.48;;
35675;SDS011;21790;42.668;23.298;2024-02-23T05:08:38;21.00;;;11.18;;
35675;SDS011;21790;42.668;23.298;2024-02-23T05:11:03;16.40;;;10.77;;
35675;SDS011;21790;42.668;23.298;2024-02-23T05:13:30;21.30;;;11.80;;
35675;SDS011;21790;42.668;23.298;2024-02-23T05:15:55;19.42;;;10.88;;
35675;SDS011;21790;42.668;23.298;2024-02-23T05:18:22;19.80;;;11.00;;
35675;SDS011;21790;42.668;23.298;2024-02-23T05:20:47;18.98;;;10.65;;
35675;SDS011;21790;42.668;23.298;2024-02-23T05:23:13;17.40;;;10.45;;
35675;SDS011;21790;42.668;23.298;2024-02-23T05:25:43;17.33;;;10.70;;
35675;SDS011;21790;42.668;23.298;2024-02-23T05:28:09;23.58;;;12.70;;
35675;SDS011;21790;42.668;23.298;2024-02-23T05:30:35;24.48;;;12.15;;
35675;SDS011;21790;42.668;23.298;2024-02-23T05:33:00;22.75;;;12.00;;
35675;SDS011;21790;42.668;23.298;2024-02-23T05:35:29;25.88;;;13.20;;
35675;SDS011;21790;42.668;23.298;2024-02-23T05:37:55;21.00;;;11.32;;
35675;SDS011;21790;42.668;23.298;2024-02-23T05:40:20;19.70;;;11.75;;
35675;SDS011;21790;42.668;23.298;2024-02-23T05:42:46;20.98;;;11.57;;
35675;SDS011;21790;42.668;23.298;2024-02-23T05:45:12;17.58;;;11.20;;
35675;SDS011;21790;42.668;23.298;2024-02-23T05:47:40;21.27;;;11.80;;
35675;SDS011;21790;42.668;23.298;2024-02-23T05:50:08;20.92;;;11.80;;
35675;SDS011;21790;42.668;23.298;2024-02-23T05:52:34;21.15;;;11.43;;
35675;SDS011;21790;42.668;23.298;2024-02-23T05:55:01;23.58;;;11.38;;
35675;SDS011;21790;42.668;23.298;2024-02-23T05:57:27;22.05;;;11.65;;
35675;SDS011;21790;42.668;23.298;2024-02-23T05:59:53;22.05;;;12.00;;
35675;SDS011;21790;42.668;23.298;2024-02-23T06:02:18;24.85;;;12.00;;
35675;SDS011;21790;42.668;23.298;2024-02-23T06:04:44;25.90;;;10.95;;
35675;SDS011;21790;42.668;23.298;2024-02-23T06:07:10;21.67;;;12.00;;
35675;SDS011;21790;42.668;23.298;2024-02-23T06:09:36;22.75;;;12.32;;
35675;SDS011;21790;42.668;23.298;2024-02-23T06:12:01;21.95;;;12.90;;
35675;SDS011;21790;42.668;23.298;2024-02-23T06:14:27;29.23;;;12.88;;
35675;SDS011;21790;42.668;23.298;2024-02-23T06:16:52;25.08;;;12.27;;
35675;SDS011;21790;42.668;23.298;2024-02-23T06:19:18;27.73;;;13.23;;
35675;SDS011;21790;42.668;23.298;2024-02-23T06:21:47;26.70;;;13.38;;
35675;SDS011;21790;42.668;23.298;2024-02-23T06:24:14;22.55;;;12.93;;
35675;SDS011;21790;42.668;23.298;2024-02-23T06:26:39;21.08;;;12.73;;
35675;SDS011;21790;42.668;23.298;2024-02-23T06:29:05;19.92;;;11.75;;
35675;SDS011;21790;42.668;23.298;2024-02-23T06:31:31;32.83;;;12.80;;
35675;SDS011;21790;42.668;23.298;2024-02-23T06:33:58;21.05;;;12.13;;
35675;SDS011;21790;42.668;23.298;2024-02-23T06:36:24;24.95;;;13.57;;
35675;SDS011;21790;42.668;23.298;2024-02-23T06:38:49;20.45;;;12.20;;
35675;SDS011;21790;42.668;23.298;2024-02-23T06:41:15;26.45;;;13.75;;
35675;SDS011;21790;42.668;23.298;2024-02-23T06:43:40;21.02;;;12.50;;
35675;SDS011;21790;42.668;23.298;2024-02-23T06:46:09;18.92;;;12.13;;
35675;SDS011;21790;42.668;23.298;2024-02-23T06:48:35;26.13;;;13.05;;
35675;SDS011;21790;42.668;23.298;2024-02-23T06:51:04;26.85;;;12.27;;
35675;SDS011;21790;42.668;23.298;2024-02-23T06:53:30;22.65;;;12.13;;
35675;SDS011;21790;42.668;23.298;2024-02-23T06:55:56;27.38;;;11.85;;
35675;SDS011;21790;42.668;23.298;2024-02-23T06:58:24;20.77;;;11.68;;
35675;SDS011;21790;42.668;23.298;2024-02-23T07:00:49;21.73;;;11.57;;
35675;SDS011;21790;42.668;23.298;2024-02-23T07:03:15;17.52;;;11.90;;
35675;SDS011;21790;42.668;23.298;2024-02-23T07:05:41;22.10;;;11.10;;
35675;SDS011;21790;42.668;23.298;2024-02-23T07:08:11;23.40;;;11.70;;
35675;SDS011;21790;42.668;23.298;2024-02-23T07:10:37;22.42;;;12.88;;
35675;SDS011;21790;42.668;23.298;2024-02-23T07:13:02;22.92;;;12.80;;
35675;SDS011;21790;42.668;23.298;2024-02-23T07:15:28;24.95;;;12.63;;
35675;SDS011;21790;42.668;23.298;2024-02-23T07:17:55;20.20;;;11.35;;
35675;SDS011;21790;42.668;23.298;2024-02-23T07:20:21;21.08;;;12.20;;
35675;SDS011;21790;42.668;23.298;2024-02-23T07:22:47;18.67;;;11.35;;
35675;SDS011;21790;42.668;23.298;2024-02-23T07:25:16;27.45;;;13.15;;
35675;SDS011;21790;42.668;23.298;2024-02-23T07:27:42;19.27;;;12.18;;
35675;SDS011;21790;42.668;23.298;2024-02-23T07:30:08;18.58;;;11.98;;
35675;SDS011;21790;42.668;23.298;2024-02-23T07:32:35;29.10;;;12.63;;
35675;SDS011;21790;42.668;23.298;2024-02-23T07:35:00;19.00;;;12.40;;
35675;SDS011;21790;42.668;23.298;2024-02-23T07:37:26;24.80;;;12.35;;
35675;SDS011;21790;42.668;23.298;2024-02-23T07:39:52;25.40;;;13.60;;
35675;SDS011;21790;42.668;23.298;2024-02-23T07:42:18;24.25;;;13.07;;
35675;SDS011;21790;42.668;23.298;2024-02-23T07:44:44;21.70;;;12.05;;
35675;SDS011;21790;42.668;23.298;2024-02-23T07:49:36;21.60;;;12.82;;
35675;SDS011;21790;42.668;23.298;2024-02-23T07:52:02;22.95;;;13.05;;
35675;SDS011;21790;42.668;23.298;2024-02-23T07:54:28;23.70;;;13.52;;
35675;SDS011;21790;42.668;23.298;2024-02-23T07:56:53;22.95;;;13.32;;
35675;SDS011;21790;42.668;23.298;2024-02-23T07:59:18;24.70;;;12.35;;
35675;SDS011;21790;42.668;23.298;2024-02-23T08:01:44;26.80;;;14.93;;
35675;SDS011;21790;42.668;23.298;2024-02-23T08:04:10;21.92;;;13.50;;
35675;SDS011;21790;42.668;23.298;2024-02-23T08:06:35;27.77;;;14.15;;
35675;SDS011;21790;42.668;23.298;2024-02-23T08:09:01;27.25;;;13.38;;
35675;SDS011;21790;42.668;23.298;2024-02-23T08:11:27;18.15;;;11.93;;
35675;SDS011;21790;42.668;23.298;2024-02-23T08:47:52;17.30;;;11.07;;
35675;SDS011;21790;42.668;23.298;2024-02-23T08:50:17;22.27;;;12.82;;
35675;SDS011;21790;42.668;23.298;2024-02-23T08:52:43;20.70;;;12.48;;
35675;SDS011;21790;42.668;23.298;2024-02-23T08:55:09;19.35;;;12.40;;
35675;SDS011;21790;42.668;23.298;2024-02-23T08:57:34;23.15;;;13.05;;
35675;SDS011;21790;42.668;23.298;2024-02-23T08:59:59;25.45;;;12.23;;
35675;SDS011;21790;42.668;23.298;2024-02-23T09:02:25;18.67;;;10.98;;
35675;SDS011;21790;42.668;23.298;2024-02-23T09:04:51;16.23;;;9.52;;
35675;SDS011;21790;42.668;23.298;2024-02-23T09:07:16;14.23;;;8.15;;
35675;SDS011;21790;42.668;23.298;2024-02-23T09:09:45;16.98;;;8.30;;
35675;SDS011;21790;42.668;23.298;2024-02-23T09:12:11;14.52;;;8.13;;
35675;SDS011;21790;42.668;23.298;2024-02-23T09:14:37;13.90;;;8.68;;
35675;SDS011;21790;42.668;23.298;2024-02-23T09:17:03;15.02;;;8.20;;
35675;SDS011;21790;42.668;23.298;2024-02-23T09:19:30;10.20;;;6.90;;
35675;SDS011;21790;42.668;23.298;2024-02-23T09:21:56;14.60;;;7.05;;
35675;SDS011;21790;42.668;23.298;2024-02-23T09:24:22;13.48;;;6.72;;
35675;SDS011;21790;42.668;23.298;2024-02-23T09:26:47;15.02;;;9.68;;
35675;SDS011;21790;42.668;23.298;2024-02-23T09:29:13;13.80;;;7.85;;
35675;SDS011;21790;42.668;23.298;2024-02-23T09:31:39;10.02;;;6.20;;
35675;SDS011;21790;42.668;23.298;2024-02-23T09:53:37;5.63;;;3.72;;
35675;SDS011;21790;42.668;23.298;2024-02-23T09:56:04;7.45;;;3.78;;
35675;SDS011;21790;42.668;23.298;2024-02-23T09:58:34;6.32;;;3.80;;
35675;SDS011;21790;42.668;23.298;2024-02-23T10:01:01;8.57;;;3.78;;
35675;SDS011;21790;42.668;23.298;2024-02-23T10:03:28;5.25;;;3.42;;
35675;SDS011;21790;42.668;23.298;2024-02-23T10:05:55;5.68;;;3.60;;
35675;SDS011;21790;42.668;23.298;2024-02-23T10:08:22;6.63;;;3.92;;
35675;SDS011;21790;42.668;23.298;2024-02-23T10:10:48;8.93;;;4.85;;
35675;SDS011;21790;42.668;23.298;2024-02-23T10:13:19;7.28;;;4.10;;
35675;SDS011;21790;42.668;23.298;2024-02-23T10:15:46;6.88;;;3.00;;
35675;SDS011;21790;42.668;23.298;2024-02-23T10:18:12;5.35;;;3.13;;
35675;SDS011;21790;42.668;23.298;2024-02-23T10:20:37;5.07;;;2.90;;
35675;SDS011;21790;42.668;23.298;2024-02-23T10:23:04;4.97;;;3.28;;
35675;SDS011;21790;42.668;23.298;2024-02-23T10:25:30;6.75;;;3.17;;
35675;SDS011;21790;42.668;23.298;2024-02-23T10:27:58;7.53;;;3.25;;
35675;SDS011;21790;42.668;23.298;2024-02-23T10:30:26;3.88;;;2.67;;
35675;SDS011;21790;42.668;23.298;2024-02-23T10:32:52;7.25;;;2.97;;
35675;SDS011;21790;42.668;23.298;2024-02-23T10:35:21;5.00;;;3.10;;
35675;SDS011;21790;42.668;23.298;2024-02-23T10:37:50;3.40;;;2.30;;
35675;SDS011;21790;42.668;23.298;2024-02-23T10:40:17;6.82;;;3.03;;
35675;SDS011;21790;42.668;23.298;2024-02-23T10:42:44;3.72;;;2.65;;
35675;SDS011;21790;42.668;23.298;2024-02-23T10:45:18;6.90;;;2.50;;
35675;SDS011;21790;42.668;23.298;2024-02-23T10:47:44;5.10;;;2.88;;
35675;SDS011;21790;42.668;23.298;2024-02-23T10:50:11;4.28;;;2.60;;
35675;SDS011;21790;42.668;23.298;2024-02-23T10:52:43;4.30;;;2.50;;
35675;SDS011;21790;42.668;23.298;2024-02-23T10:55:09;3.17;;;2.25;;
35675;SDS011;21790;42.668;23.298;2024-02-23T10:57:35;3.78;;;2.30;;
35675;SDS011;21790;42.668;23.298;2024-02-23T11:00:02;5.13;;;2.42;;
35675;SDS011;21790;42.668;23.298;2024-02-23T11:02:31;3.47;;;2.55;;
35675;SDS011;21790;42.668;23.298;2024-02-23T11:05:01;6.22;;;2.65;;
35675;SDS011;21790;42.668;23.298;2024-02-23T11:07:29;3.47;;;2.28;;
35675;SDS011;21790;42.668;23.298;2024-02-23T11:52:02;4.20;;;2.47;;
35675;SDS011;21790;42.668;23.298;2024-02-23T11:54:27;4.53;;;2.10;;
35675;SDS011;21790;42.668;23.298;2024-02-23T11:56:53;6.05;;;2.35;;
35675;SDS011;21790;42.668;23.298;2024-02-23T11:59:20;4.88;;;2.30;;
35675;SDS011;21790;42.668;23.298;2024-02-23T12:01:46;5.20;;;2.85;;
35675;SDS011;21790;42.668;23.298;2024-02-23T12:04:14;2.75;;;1.80;;
35675;SDS011;21790;42.668;23.298;2024-02-23T12:06:41;3.38;;;2.13;;
35675;SDS011;21790;42.668;23.298;2024-02-23T12:09:07;4.40;;;2.60;;
35675;SDS011;21790;42.668;23.298;2024-02-23T12:11:33;3.45;;;2.53;;
35675;SDS011;21790;42.668;23.298;2024-02-23T12:14:00;4.50;;;2.63;;
35675;SDS011;21790;42.668;23.298;2024-02-23T12:16:27;3.60;;;2.97;;
35675;SDS011;21790;42.668;23.298;2024-02-23T12:18:53;2.90;;;2.60;;
35675;SDS011;21790;42.668;23.298;2024-02-23T12:21:23;3.50;;;2.58;;
35675;SDS011;21790;42.668;23.298;2024-02-23T12:23:49;5.97;;;3.05;;
35675;SDS011;21790;42.668;23.298;2024-02-23T12:26:18;8.10;;;2.78;;
35675;SDS011;21790;42.668;23.298;2024-02-23T12:28:44;4.82;;;2.88;;
35675;SDS011;21790;42.668;23.298;2024-02-23T12:31:10;5.95;;;2.72;;
35675;SDS011;21790;42.668;23.298;2024-02-23T12:33:39;6.32;;;2.00;;
35675;SDS011;21790;42.668;23.298;2024-02-23T12:36:06;3.35;;;2.15;;
35675;SDS011;21790;42.668;23.298;2024-02-23T12:38:32;4.28;;;2.38;;
35675;SDS011;21790;42.668;23.298;2024-02-23T12:40:58;2.60;;;1.90;;
35675;SDS011;21790;42.668;23.298;2024-02-23T12:43:25;3.90;;;2.10;;
35675;SDS011;21790;42.668;23.298;2024-02-23T13:47:13;4.13;;;2.10;;
35675;SDS011;21790;42.668;23.298;2024-02-23T13:49:38;3.15;;;2.25;;
35675;SDS011;21790;42.668;23.298;2024-02-23T13:52:03;3.72;;;2.03;;
35675;SDS011;21790;42.668;23.298;2024-02-23T13:54:29;6.20;;;2.67;;
35675;SDS011;21790;42.668;23.298;2024-02-23T13:56:55;4.80;;;1.88;;
35675;SDS011;21790;42.668;23.298;2024-02-23T13:59:20;3.33;;;2.10;;
35675;SDS011;21790;42.668;23.298;2024-02-23T14:01:46;3.75;;;2.60;;
35675;SDS011;21790;42.668;23.298;2024-02-23T14:04:11;3.03;;;2.25;;
35675;SDS011;21790;42.668;23.298;2024-02-23T14:06:37;5.00;;;2.63;;
35675;SDS011;21790;42.668;23.298;2024-02-23T14:09:02;5.80;;;2.55;;
35675;SDS011;21790;42.668;23.298;2024-02-23T14:11:29;5.25;;;2.05;;
35675;SDS011;21790;42.668;23.298;2024-02-23T14:13:55;6.57;;;2.60;;
35675;SDS011;21790;42.668;23.298;2024-02-23T14:16:22;4.93;;;2.40;;
35675;SDS011;21790;42.668;23.298;2024-02-23T14:18:48;2.42;;;2.00;;
35675;SDS011;21790;42.668;23.298;2024-02-23T14:21:14;3.47;;;2.00;;
35675;SDS011;21790;42.668;23.298;2024-02-23T14:23:40;4.72;;;2.08;;
35675;SDS011;21790;42.668;23.298;2024-02-23T14:26:06;7.50;;;2.35;;
35675;SDS011;21790;42.668;23.298;2024-02-23T14:28:32;7.82;;;2.63;;
35675;SDS011;21790;42.668;23.298;2024-02-23T14:30:57;3.40;;;2.08;;
35675;SDS011;21790;42.668;23.298;2024-02-23T14:33:23;5.93;;;2.60;;
35675;SDS011;21790;42.668;23.298;2024-02-23T14:35:49;4.50;;;2.47;;
35675;SDS011;21790;42.668;23.298;2024-02-23T14:38:15;5.70;;;2.25;;
35675;SDS011;21790;42.668;23.298;2024-02-23T14:40:41;3.83;;;2.47;;
35675;SDS011;21790;42.668;23.298;2024-02-23T14:43:07;5.18;;;2.65;;
35675;SDS011;21790;42.668;23.298;2024-02-23T14:45:33;3.13;;;2.53;;
35675;SDS011;21790;42.668;23.298;2024-02-23T14:47:58;10.45;;;2.58;;
35675;SDS011;21790;42.668;23.298;2024-02-23T14:50:24;8.43;;;2.88;;
35675;SDS011;21790;42.668;23.298;2024-02-23T14:52:50;8.98;;;2.50;;
35675;SDS011;21790;42.668;23.298;2024-02-23T14:55:15;3.53;;;2.58;;
35675;SDS011;21790;42.668;23.298;2024-02-23T14:57:41;7.72;;;2.88;;
35675;SDS011;21790;42.668;23.298;2024-02-23T15:00:07;10.48;;;2.90;;
35675;SDS011;21790;42.668;23.298;2024-02-23T15:02:34;6.47;;;2.70;;
35675;SDS011;21790;42.668;23.298;2024-02-23T15:05:00;7.30;;;2.45;;
35675;SDS011;21790;42.668;23.298;2024-02-23T15:07:26;3.10;;;2.70;;
35675;SDS011;21790;42.668;23.298;2024-02-23T15:09:51;5.18;;;2.70;;
35675;SDS011;21790;42.668;23.298;2024-02-23T15:12:17;5.10;;;2.38;;
35675;SDS011;21790;42.668;23.298;2024-02-23T15:14:42;3.38;;;2.25;;
35675;SDS011;21790;42.668;23.298;2024-02-23T15:17:08;3.45;;;2.80;;
35675;SDS011;21790;42.668;23.298;2024-02-23T15:19:33;3.95;;;2.50;;
35675;SDS011;21790;42.668;23.298;2024-02-23T15:21:59;4.90;;;2.85;;
35675;SDS011;21790;42.668;23.298;2024-02-23T15:24:24;6.47;;;3.47;;
35675;SDS011;21790;42.668;23.298;2024-02-23T15:26:50;7.28;;;3.08;;
35675;SDS011;21790;42.668;23.298;2024-02-23T15:29:17;5.20;;;3.15;;
35675;SDS011;21790;42.668;23.298;2024-02-23T15:31:43;3.13;;;2.60;;
35675;SDS011;21790;42.668;23.298;2024-02-23T15:34:09;4.82;;;2.88;;
35675;SDS011;21790;42.668;23.298;2024-02-23T15:36:35;4.27;;;2.60;;
35675;SDS011;21790;42.668;23.298;2024-02-23T15:39:00;4.85;;;2.78;;
35675;SDS011;21790;42.668;23.298;2024-02-23T15:41:28;4.15;;;2.70;;
35675;SDS011;21790;42.668;23.298;2024-02-23T15:43:59;6.03;;;2.95;;
35675;SDS011;21790;42.668;23.298;2024-02-23T15:46:25;7.32;;;3.42;;
35675;SDS011;21790;42.668;23.298;2024-02-23T15:48:52;5.70;;;3.33;;
35675;SDS011;21790;42.668;23.298;2024-02-23T15:51:18;4.65;;;2.88;;
35675;SDS011;21790;42.668;23.298;2024-02-23T15:53:43;7.63;;;3.72;;
35675;SDS011;21790;42.668;23.298;2024-02-23T15:56:09;3.30;;;3.00;;
35675;SDS011;21790;42.668;23.298;2024-02-23T15:58:34;5.53;;;3.40;;
35675;SDS011;21790;42.668;23.298;2024-02-23T16:01:00;4.88;;;3.25;;
35675;SDS011;21790;42.668;23.298;2024-02-23T16:03:25;3.95;;;3.28;;
35675;SDS011;21790;42.668;23.298;2024-02-23T16:05:51;4.72;;;3.13;;
35675;SDS011;21790;42.668;23.298;2024-02-23T16:08:17;8.23;;;3.00;;
35675;SDS011;21790;42.668;23.298;2024-02-23T16:10:42;3.50;;;3.10;;
35675;SDS011;21790;42.668;23.298;2024-02-23T16:13:08;5.05;;;3.40;;
35675;SDS011;21790;42.668;23.298;2024-02-23T16:15:33;4.60;;;3.30;;
35675;SDS011;21790;42.668;23.298;2024-02-23T16:17:59;6.32;;;3.70;;
35675;SDS011;21790;42.668;23.298;2024-02-23T16:20:24;5.10;;;3.72;;
35675;SDS011;21790;42.668;23.298;2024-02-23T16:22:50;4.70;;;3.63;;
35675;SDS011;21790;42.668;23.298;2024-02-23T16:25:17;7.50;;;3.90;;
35675;SDS011;21790;42.668;23.298;2024-02-23T16:27:42;7.60;;;3.08;;
35675;SDS011;21790;42.668;23.298;2024-02-23T16:30:10;4.70;;;3.45;;
35675;SDS011;21790;42.668;23.298;2024-02-23T16:32:36;4.43;;;3.17;;
35675;SDS011;21790;42.668;23.298;2024-02-23T16:35:02;4.85;;;3.65;;
35675;SDS011;21790;42.668;23.298;2024-02-23T16:37:29;3.90;;;3.42;;
35675;SDS011;21790;42.668;23.298;2024-02-23T16:39:56;4.95;;;3.88;;
35675;SDS011;21790;42.668;23.298;2024-02-23T16:42:21;10.57;;;5.00;;
35675;SDS011;21790;42.668;23.298;2024-02-23T16:44:47;7.28;;;4.90;;
35675;SDS011;21790;42.668;23.298;2024-02-23T16:47:13;6.60;;;4.20;;
35675;SDS011;21790;42.668;23.298;2024-02-23T16:49:38;6.40;;;3.88;;
35675;SDS011;21790;42.668;23.298;2024-02-23T16:52:04;5.10;;;3.63;;
35675;SDS011;21790;42.668;23.298;2024-02-23T16:54:31;6.95;;;4.43;;
35675;SDS011;21790;42.668;23.298;2024-02-23T16:56:56;5.43;;;4.18;;